Time;durP1;ratioP1;P1;durP2;ratioP2;P2;SDS_P1;SDS_P2;PMS_P1;PMS_P2;Temp;Humidity;BMP_temperature;BMP_pressure;BME280_temperature;BME280_humidity;BME280_pressure;Samples;Min_cycle;Max_cycle;Signal;HPM_P1;HPM_P2
2022/09/04 00:01:09;;;;;;;1.30;1.13;;;16.30;94.10;;;;;;5068142;28;20049;-56
2022/09/04 00:03:48;;;;;;;3.97;1.92;;;16.30;94.30;;;;;;5029896;28;20113;-61
2022/09/04 00:06:32;;;;;;;2.55;1.08;;;16.30;94.50;;;;;;5047779;28;20088;-56
2022/09/04 00:09:03;;;;;;;1.03;0.80;;;16.20;94.90;;;;;;5069521;28;20422;-57
2022/09/04 00:11:43;;;;;;;2.28;1.50;;;16.20;94.60;;;;;;5071468;28;20036;-57
2022/09/04 00:14:14;;;;;;;1.48;1.05;;;16.20;94.70;;;;;;5071445;28;20137;-57
2022/09/04 00:16:57;;;;;;;1.35;1.20;;;16.20;94.70;;;;;;5071343;28;20506;-56
2022/09/04 00:19:32;;;;;;;2.38;0.93;;;16.20;94.90;;;;;;5053354;28;20110;-57
2022/09/04 00:22:12;;;;;;;2.08;1.13;;;16.10;95.00;;;;;;5071438;28;20051;-57
2022/09/04 00:24:42;;;;;;;2.88;1.63;;;16.10;94.90;;;;;;5071031;28;20510;-57
2022/09/04 00:27:20;;;;;;;1.23;1.13;;;16.20;94.90;;;;;;5071290;28;20113;-57
2022/09/04 00:29:56;;;;;;;1.08;0.98;;;16.10;95.00;;;;;;5052919;28;20045;-56
2022/09/04 00:32:33;;;;;;;1.67;1.50;;;16.00;95.10;;;;;;5052587;28;20113;-56
2022/09/04 00:35:04;;;;;;;2.05;1.48;;;16.00;95.00;;;;;;5070793;28;20091;-56
2022/09/04 00:37:49;;;;;;;2.08;1.00;;;16.00;94.80;;;;;;5057232;28;20586;-57
2022/09/04 00:40:52;;;;;;;3.55;2.08;;;16.00;95.20;;;;;;5041407;28;20094;-56
2022/09/04 00:43:36;;;;;;;2.78;0.98;;;16.00;95.10;;;;;;5066879;28;20142;-57
2022/09/04 00:46:21;;;;;;;2.20;1.00;;;16.00;95.30;;;;;;5071682;28;20059;-56
2022/09/04 00:49:06;;;;;;;;;;;16.00;95.20;;;;;;5071404;28;20440;-58
2022/09/04 00:52:08;;;;;;;3.38;1.10;;;15.90;95.70;;;;;;5070149;28;20390;-58
2022/09/04 00:54:48;;;;;;;2.22;1.25;;;15.80;95.70;;;;;;5070928;28;20059;-59
2022/09/04 00:57:36;;;;;;;4.22;1.20;;;15.80;95.70;;;;;;5071089;28;20170;-58
2022/09/04 01:00:16;;;;;;;4.53;1.75;;;15.80;95.90;;;;;;5070744;28;20048;-58
2022/09/04 01:03:01;;;;;;;2.17;1.27;;;15.70;96.10;;;;;;5070720;28;20516;-56
2022/09/04 01:05:45;;;;;;;2.67;1.27;;;15.70;96.00;;;;;;5070624;28;20048;-57
2022/09/04 01:08:40;;;;;;;2.22;1.30;;;15.70;96.20;;;;;;5052733;28;20088;-57
2022/09/04 01:11:24;;;;;;;3.90;1.35;;;15.70;96.50;;;;;;5070019;28;20132;-58
2022/09/04 01:13:50;;;;;;;1.40;1.23;;;15.60;96.60;;;;;;5070382;28;20048;-57
2022/09/04 01:16:36;;;;;;;3.17;1.88;;;15.50;96.70;;;;;;5069672;28;20507;-57
2022/09/04 01:19:23;;;;;;;1.88;1.30;;;15.50;96.70;;;;;;5050570;28;20053;-57
2022/09/04 01:22:06;;;;;;;1.65;1.08;;;15.50;96.90;;;;;;5050446;28;20052;-58
2022/09/04 01:24:41;;;;;;;2.40;1.45;;;15.40;96.90;;;;;;5069424;28;20407;-57
2022/09/04 01:27:12;;;;;;;2.80;1.48;;;15.40;97.10;;;;;;5068912;28;20513;-58
2022/09/04 01:29:53;;;;;;;3.83;1.42;;;15.40;97.20;;;;;;5069152;28;20561;-57
2022/09/04 01:32:22;;;;;;;2.78;1.17;;;15.40;97.20;;;;;;5069432;28;20052;-59
2022/09/04 01:35:11;;;;;;;1.90;1.58;;;15.40;97.30;;;;;;5069196;28;20059;-58
2022/09/04 01:37:50;;;;;;;2.45;1.48;;;15.40;97.50;;;;;;5054033;28;20057;-58
2022/09/04 01:40:36;;;;;;;1.83;1.17;;;15.30;97.70;;;;;;5053981;28;20102;-56
2022/09/04 01:43:07;;;;;;;4.70;1.63;;;15.30;97.90;;;;;;5050326;28;20760;-56
2022/09/04 01:45:48;;;;;;;4.15;1.05;;;15.30;97.80;;;;;;5069157;28;20139;-57
2022/09/04 01:48:20;;;;;;;5.00;1.55;;;15.20;97.90;;;;;;5069503;28;20048;-56
2022/09/04 01:50:52;;;;;;;3.72;1.65;;;15.20;98.00;;;;;;5069061;28;20045;-56
2022/09/04 01:53:24;;;;;;;3.05;1.50;;;15.20;97.90;;;;;;5068573;28;20051;-56
2022/09/04 01:56:13;;;;;;;2.13;1.42;;;15.20;98.20;;;;;;5068001;28;20514;-58
2022/09/04 01:59:07;;;;;;;1.63;1.10;;;15.10;98.50;;;;;;5069085;28;20139;-56
2022/09/04 02:01:46;;;;;;;1.52;1.10;;;15.10;98.40;;;;;;5068360;28;20056;-56
2022/09/04 02:04:54;;;;;;;2.55;1.70;;;15.10;98.80;;;;;;5068817;28;20441;-56
2022/09/04 02:07:35;;;;;;;2.90;1.40;;;15.00;98.70;;;;;;5067965;28;20510;-56
2022/09/04 02:10:07;;;;;;;3.10;1.48;;;15.00;98.80;;;;;;5067817;28;20082;-56
2022/09/04 02:13:11;;;;;;;4.80;1.38;;;14.90;99.00;;;;;;5068189;28;20502;-59
2022/09/04 02:15:42;;;;;;;3.60;1.38;;;14.90;99.20;;;;;;5057911;28;20067;-56
2022/09/04 02:18:15;;;;;;;1.63;1.40;;;14.90;99.50;;;;;;5057465;28;20441;-58
2022/09/04 02:20:55;;;;;;;2.13;1.13;;;14.90;99.30;;;;;;5054595;28;20044;-59
2022/09/04 02:23:35;;;;;;;1.77;1.30;;;14.80;99.50;;;;;;5069136;28;20044;-56
2022/09/04 02:26:19;;;;;;;5.43;1.77;;;14.80;99.70;;;;;;5068645;28;20056;-58
2022/09/04 02:29:11;;;;;;;2.67;1.52;;;14.80;99.60;;;;;;5068855;28;20084;-58
2022/09/04 02:31:57;;;;;;;2.50;1.25;;;14.80;99.90;;;;;;5069042;28;20059;-56
2022/09/04 02:34:48;;;;;;;5.90;1.38;;;14.80;99.90;;;;;;5068932;28;20044;-56
2022/09/04 02:37:38;;;;;;;4.30;1.42;;;14.70;99.90;;;;;;5060693;28;20410;-56
2022/09/04 02:40:17;;;;;;;3.08;1.30;;;14.70;99.90;;;;;;5068704;28;20120;-57
2022/09/04 02:43:04;;;;;;;3.13;1.40;;;14.70;99.90;;;;;;5068858;28;20059;-58
2022/09/04 02:46:00;;;;;;;1.50;1.38;;;14.70;99.90;;;;;;5069255;28;20443;-56
2022/09/04 02:48:33;;;;;;;2.53;1.63;;;14.70;99.90;;;;;;5068919;28;20055;-56
2022/09/04 02:51:44;;;;;;;3.40;1.20;;;14.70;99.90;;;;;;5068331;28;20123;-57
2022/09/04 02:54:56;;;;;;;1.55;1.15;;;14.60;99.90;;;;;;5044171;28;20110;-56
2022/09/04 02:57:56;;;;;;;2.90;1.38;;;14.60;99.90;;;;;;5068432;28;20052;-57
2022/09/04 03:00:38;;;;;;;4.45;1.35;;;14.50;99.90;;;;;;5068232;28;20047;-56
2022/09/04 03:03:27;;;;;;;2.03;1.30;;;14.50;99.90;;;;;;5068786;28;20040;-57
2022/09/04 03:06:04;;;;;;;3.13;1.13;;;14.50;99.90;;;;;;5053306;28;20096;-56
2022/09/04 03:08:48;;;;;;;2.03;1.55;;;14.40;99.90;;;;;;5062798;28;20036;-56
2022/09/04 03:11:27;;;;;;;3.33;1.92;;;14.40;99.90;;;;;;5067735;28;20048;-56
2022/09/04 03:14:06;;;;;;;1.85;1.50;;;14.30;99.90;;;;;;5068045;28;20509;-56
2022/09/04 03:16:41;;;;;;;2.45;1.77;;;14.30;99.90;;;;;;5068171;28;20045;-56
2022/09/04 03:19:23;;;;;;;4.07;1.70;;;14.30;99.90;;;;;;5049424;28;20056;-57
2022/09/04 03:22:35;;;;;;;2.15;1.48;;;14.20;99.90;;;;;;5061477;28;20499;-56
2022/09/04 03:25:38;;;;;;;2.53;1.40;;;14.20;99.90;;;;;;5039275;28;20096;-56
2022/09/04 03:28:10;;;;;;;2.45;1.77;;;14.10;99.90;;;;;;5005374;28;20503;-56
2022/09/04 03:30:37;;;;;;;2.88;2.03;;;14.10;99.90;;;;;;5058271;28;20506;-57
2022/09/04 03:33:13;;;;;;;1.77;1.15;;;14.10;99.90;;;;;;5067206;28;20371;-57
2022/09/04 03:36:01;;;;;;;2.55;1.70;;;14.10;99.90;;;;;;5066785;28;20044;-56
2022/09/04 03:38:49;;;;;;;2.53;1.90;;;14.00;99.90;;;;;;5047169;28;20082;-58
2022/09/04 03:41:48;;;;;;;3.35;1.75;;;14.00;99.90;;;;;;5047318;28;20084;-58
2022/09/04 03:44:33;;;;;;;2.03;1.50;;;14.00;99.90;;;;;;5067626;28;20052;-56
2022/09/04 03:47:21;;;;;;;2.20;1.40;;;14.00;99.90;;;;;;5068140;28;20075;-56
2022/09/04 03:50:02;;;;;;;2.00;1.35;;;13.90;99.90;;;;;;5049598;28;20146;-57
2022/09/04 03:52:46;;;;;;;2.28;1.35;;;13.90;99.90;;;;;;5067601;28;20036;-56
2022/09/04 03:55:30;;;;;;;1.42;1.30;;;13.90;99.90;;;;;;5067486;28;20060;-56
2022/09/04 03:58:49;;;;;;;3.88;1.60;;;13.90;99.90;;;;;;5067588;28;20048;-56
2022/09/04 04:01:51;;;;;;;1.90;1.25;;;14.20;99.90;;;;;;4969869;28;20050;-56
2022/09/04 04:04:34;;;;;;;2.05;1.50;;;13.80;99.90;;;;;;5047586;28;20060;-56
2022/09/04 04:07:41;;;;;;;2.92;1.73;;;13.80;99.90;;;;;;5067527;28;20094;-56
2022/09/04 04:10:07;;;;;;;3.38;1.70;;;13.80;99.90;;;;;;4965921;28;20054;-56
2022/09/04 04:13:00;;;;;;;2.42;1.85;;;13.70;99.90;;;;;;5049877;28;20130;-56
2022/09/04 04:15:58;;;;;;;1.40;1.30;;;13.70;99.90;;;;;;5049385;28;20396;-58
2022/09/04 04:18:26;;;;;;;2.88;1.80;;;13.70;99.90;;;;;;5054362;28;20048;-57
2022/09/04 04:21:14;;;;;;;1.92;1.60;;;13.70;99.90;;;;;;5029281;28;20183;-56
2022/09/04 04:24:01;;;;;;;4.20;1.85;;;13.70;99.90;;;;;;5062833;28;20080;-56
2022/09/04 04:27:01;;;;;;;2.88;1.80;;;13.60;99.90;;;;;;5067523;28;20064;-56
2022/09/04 04:29:35;;;;;;;4.45;2.00;;;13.60;99.90;;;;;;5067139;28;20052;-56
2022/09/04 04:32:10;;;;;;;;;;;13.60;99.90;;;;;;5067912;28;20059;-56
2022/09/04 04:34:52;;;;;;;1.90;1.50;;;13.60;99.90;;;;;;5067104;28;19931;-56
2022/09/04 04:37:50;;;;;;;2.72;1.55;;;13.50;99.90;;;;;;5054875;28;20052;-57
2022/09/04 04:40:42;;;;;;;2.53;1.63;;;13.50;99.90;;;;;;5012529;28;20136;-57
2022/09/04 04:43:28;;;;;;;2.60;1.85;;;13.50;99.90;;;;;;5057159;28;20123;-58
2022/09/04 04:46:11;;;;;;;3.42;1.83;;;13.60;99.90;;;;;;5028787;28;20414;-57
2022/09/04 04:48:49;;;;;;;2.07;1.63;;;13.50;99.90;;;;;;5060516;28;20098;-57
2022/09/04 04:51:40;;;;;;;2.13;1.80;;;13.40;99.90;;;;;;5067102;28;20052;-56
2022/09/04 04:54:45;;;;;;;2.90;1.70;;;13.40;99.90;;;;;;5058070;28;20037;-60
2022/09/04 04:57:34;;;;;;;3.65;1.60;;;13.40;99.90;;;;;;5060951;28;20036;-58
2022/09/04 05:00:17;;;;;;;2.10;1.70;;;13.40;99.90;;;;;;5070740;28;20044;-61
2022/09/04 05:03:00;;;;;;;2.67;1.67;;;13.40;99.90;;;;;;5070378;28;20060;-63
2022/09/04 05:05:46;;;;;;;2.00;1.65;;;13.40;99.90;;;;;;5070253;28;20524;-69
2022/09/04 05:08:21;;;;;;;2.22;1.50;;;13.40;99.90;;;;;;5070710;28;20075;-64
2022/09/04 05:10:54;;;;;;;2.33;1.80;;;13.40;99.90;;;;;;5052564;28;20452;-68
2022/09/04 05:13:20;;;;;;;3.78;1.52;;;13.40;99.90;;;;;;5069885;28;20585;-64
2022/09/04 05:16:02;;;;;;;3.00;1.92;;;13.40;99.90;;;;;;5070556;28;20059;-56
2022/09/04 05:19:07;;;;;;;2.67;1.60;;;13.40;99.90;;;;;;5057448;28;20044;-57
2022/09/04 05:21:36;;;;;;;2.22;1.60;;;13.40;99.90;;;;;;4993686;28;20065;-68
2022/09/04 05:24:23;;;;;;;2.28;1.63;;;13.40;99.90;;;;;;5065720;28;20098;-58
2022/09/04 05:26:56;;;;;;;2.33;1.80;;;13.40;99.90;;;;;;5052051;28;20103;-58
2022/09/04 05:29:30;;;;;;;2.92;2.00;;;13.40;99.90;;;;;;5070078;28;20048;-68
2022/09/04 05:32:09;;;;;;;3.15;1.95;;;13.40;99.90;;;;;;5070499;28;20106;-63
2022/09/04 05:34:58;;;;;;;3.10;2.00;;;13.50;99.90;;;;;;5070271;28;20131;-69
2022/09/04 05:38:01;;;;;;;3.03;1.58;;;13.60;99.90;;;;;;5030989;28;20056;-69
2022/09/04 05:41:05;;;;;;;3.03;2.00;;;13.60;99.90;;;;;;4982723;28;20069;-60
2022/09/04 05:44:08;;;;;;;3.20;1.70;;;13.60;99.90;;;;;;5060987;28;20040;-56
2022/09/04 05:46:48;;;;;;;1.90;1.70;;;13.70;99.90;;;;;;5069296;28;20482;-61
2022/09/04 05:49:44;;;;;;;1.67;1.58;;;13.80;99.90;;;;;;5070306;28;20359;-60
2022/09/04 05:52:29;;;;;;;6.60;2.17;;;13.90;99.90;;;;;;5051500;28;20060;-57
2022/09/04 05:54:54;;;;;;;2.63;1.48;;;14.00;99.90;;;;;;5049662;28;20045;-56
2022/09/04 05:57:35;;;;;;;3.25;1.77;;;14.00;99.90;;;;;;5059931;28;20097;-58
2022/09/04 06:00:08;;;;;;;2.45;1.60;;;14.10;99.90;;;;;;5069735;28;20048;-56
2022/09/04 06:02:46;;;;;;;3.70;1.73;;;14.20;99.90;;;;;;5051013;28;20565;-58
2022/09/04 06:05:22;;;;;;;4.28;1.50;;;14.30;99.90;;;;;;5051338;28;20504;-58
2022/09/04 06:07:54;;;;;;;3.95;2.40;;;14.30;99.90;;;;;;5051160;28;20193;-57
2022/09/04 06:10:30;;;;;;;4.18;2.05;;;14.30;99.90;;;;;;5065222;28;20037;-58
2022/09/04 06:13:01;;;;;;;3.15;1.63;;;14.40;99.90;;;;;;5069129;28;20148;-58
2022/09/04 06:16:02;;;;;;;3.10;2.08;;;14.40;99.90;;;;;;5069765;28;20052;-56
2022/09/04 06:19:19;;;;;;;2.28;1.75;;;14.50;99.90;;;;;;5055566;28;20510;-56
2022/09/04 06:21:51;;;;;;;2.20;1.75;;;14.60;99.90;;;;;;5004984;28;20068;-67
2022/09/04 06:24:38;;;;;;;2.58;1.88;;;14.60;99.90;;;;;;5065113;28;20057;-58
2022/09/04 06:27:22;;;;;;;3.50;1.90;;;14.70;99.90;;;;;;5067651;28;20052;-60
2022/09/04 06:30:08;;;;;;;3.92;1.92;;;14.90;99.90;;;;;;5058036;28;20060;-56
2022/09/04 06:32:50;;;;;;;3.03;1.95;;;14.90;99.90;;;;;;5058580;28;20060;-57
2022/09/04 06:35:25;;;;;;;2.83;1.85;;;15.00;99.90;;;;;;5056528;28;20041;-56
2022/09/04 06:37:54;;;;;;;4.88;2.72;;;15.00;99.90;;;;;;5057580;28;20044;-57
2022/09/04 06:40:47;;;;;;;2.35;1.92;;;15.20;99.90;;;;;;5058711;28;20051;-63
2022/09/04 06:43:36;;;;;;;4.45;1.95;;;15.40;99.90;;;;;;5058490;28;20141;-57
2022/09/04 06:46:20;;;;;;;3.05;1.80;;;15.70;99.90;;;;;;5056383;28;20377;-57
2022/09/04 06:48:59;;;;;;;4.35;2.20;;;15.90;99.90;;;;;;5057261;28;20037;-57
2022/09/04 06:51:52;;;;;;;3.35;2.00;;;16.10;99.90;;;;;;5057958;28;20041;-56
2022/09/04 06:54:20;;;;;;;4.57;2.30;;;16.40;99.90;;;;;;5058463;28;20408;-57
2022/09/04 06:56:58;;;;;;;2.13;1.92;;;16.50;99.90;;;;;;5051859;28;20047;-57
2022/09/04 06:59:24;;;;;;;4.88;2.50;;;16.80;99.90;;;;;;5048504;28;20041;-57
2022/09/04 07:01:59;;;;;;;4.75;2.10;;;17.00;99.90;;;;;;5062126;28;20044;-57
2022/09/04 07:04:50;;;;;;;2.65;1.70;;;17.20;99.90;;;;;;5063744;28;20057;-57
2022/09/04 07:07:16;;;;;;;4.10;2.50;;;17.40;99.90;;;;;;5062118;28;20048;-58
2022/09/04 07:09:59;;;;;;;2.25;1.88;;;17.60;99.90;;;;;;5050996;28;20075;-57
2022/09/04 07:12:37;;;;;;;8.30;2.20;;;17.70;99.90;;;;;;5049660;28;20076;-62
2022/09/04 07:15:26;;;;;;;6.65;2.60;;;17.90;99.90;;;;;;5063678;28;20105;-57
2022/09/04 07:18:12;;;;;;;4.68;2.40;;;18.10;99.90;;;;;;5056846;28;20036;-57
2022/09/04 07:21:03;;;;;;;3.08;2.15;;;18.40;99.90;;;;;;5039262;28;20044;-58
2022/09/04 07:23:56;;;;;;;3.10;2.03;;;18.50;99.70;;;;;;5035012;28;20048;-59
2022/09/04 07:26:40;;;;;;;6.03;2.25;;;18.80;99.80;;;;;;5054379;28;20090;-59
2022/09/04 07:29:36;;;;;;;2.20;1.83;;;19.00;99.60;;;;;;5059695;28;20043;-65
2022/09/04 07:32:17;;;;;;;3.28;1.77;;;19.30;99.10;;;;;;5063543;28;20055;-58
2022/09/04 07:34:53;;;;;;;5.80;1.88;;;19.40;98.90;;;;;;5062805;28;20110;-58
2022/09/04 07:37:25;;;;;;;3.58;2.10;;;19.70;98.70;;;;;;5055442;28;20097;-59
2022/09/04 07:40:13;;;;;;;5.07;1.98;;;19.80;98.60;;;;;;5049236;28;20049;-60
2022/09/04 07:42:47;;;;;;;2.05;1.50;;;20.10;98.20;;;;;;5047768;28;20056;-60
2022/09/04 07:45:34;;;;;;;4.07;2.33;;;20.40;98.30;;;;;;5046070;28;20045;-59
2022/09/04 07:48:04;;;;;;;5.18;1.80;;;20.60;97.70;;;;;;5063422;28;20048;-63
2022/09/04 07:51:08;;;;;;;1.58;1.45;;;20.80;97.70;;;;;;5062097;28;20040;-58
2022/09/04 07:54:08;;;;;;;1.95;1.75;;;21.00;96.80;;;;;;5063481;28;20040;-58
2022/09/04 07:57:00;;;;;;;3.35;1.90;;;21.00;96.20;;;;;;5053069;28;20040;-68
2022/09/04 07:59:47;;;;;;;3.65;1.88;;;21.00;96.20;;;;;;5054611;28;20486;-64
2022/09/04 08:02:22;;;;;;;9.07;2.63;;;21.10;95.90;;;;;;5052303;28;20452;-65
2022/09/04 08:05:12;;;;;;;5.68;2.67;;;21.40;96.30;;;;;;5051154;28;20621;-63
2022/09/04 08:07:37;;;;;;;2.30;1.73;;;21.60;96.00;;;;;;5034157;28;20500;-59
2022/09/04 08:10:35;;;;;;;5.55;2.25;;;21.70;96.20;;;;;;5050979;28;20496;-68
2022/09/04 08:13:08;;;;;;;6.35;1.90;;;21.80;95.00;;;;;;5021062;28;20081;-66
2022/09/04 08:15:47;;;;;;;3.25;1.70;;;22.00;95.70;;;;;;5052182;28;20106;-64
2022/09/04 08:18:51;;;;;;;4.57;1.80;;;22.40;95.00;;;;;;5053290;28;20071;-66
2022/09/04 08:21:29;;;;;;;8.60;2.45;;;22.80;94.40;;;;;;5004612;28;20060;-57
2022/09/04 08:24:15;;;;;;;4.03;1.90;;;23.10;94.60;;;;;;5062158;28;20084;-65
2022/09/04 08:26:47;;;;;;;5.00;2.38;;;23.30;93.90;;;;;;5062674;28;20055;-58
2022/09/04 08:29:39;;;;;;;3.50;2.20;;;23.40;93.20;;;;;;5065685;28;20131;-67
2022/09/04 08:32:23;;;;;;;3.10;1.90;;;24.00;93.70;;;;;;5066939;28;20174;-58
2022/09/04 08:34:59;;;;;;;3.13;2.38;;;24.60;93.70;;;;;;5057177;28;20478;-58
2022/09/04 08:37:59;;;;;;;3.05;1.80;;;24.90;92.50;;;;;;5057854;28;20033;-58
2022/09/04 08:40:46;;;;;;;5.85;2.17;;;24.80;92.30;;;;;;5058429;28;20045;-58
2022/09/04 08:43:46;;;;;;;4.18;1.90;;;25.30;91.70;;;;;;5056928;28;20520;-58
2022/09/04 08:46:51;;;;;;;4.43;1.73;;;25.30;91.50;;;;;;5034761;28;20048;-58
2022/09/04 08:49:36;;;;;;;;;;;25.80;91.10;;;;;;5046956;28;20144;-58
2022/09/04 08:52:39;;;;;;;7.05;2.30;;;26.00;90.80;;;;;;5053943;28;20471;-58
2022/09/04 08:55:14;;;;;;;6.43;1.90;;;25.80;90.20;;;;;;5047528;28;20055;-58
2022/09/04 08:57:52;;;;;;;4.00;2.03;;;25.80;91.70;;;;;;5062544;28;20044;-58
2022/09/04 09:00:28;;;;;;;3.17;1.60;;;26.20;90.90;;;;;;5056854;28;20055;-67
2022/09/04 09:03:36;;;;;;;4.85;1.90;;;26.60;90.60;;;;;;5060098;28;20052;-68
2022/09/04 09:06:27;;;;;;;3.10;1.50;;;26.70;88.80;;;;;;5045281;28;20470;-65
2022/09/04 09:09:20;;;;;;;3.67;1.65;;;27.40;90.30;;;;;;5066222;28;20533;-62
2022/09/04 09:12:04;;;;;;;3.42;1.60;;;27.20;89.00;;;;;;5046134;28;20052;-58
2022/09/04 09:15:15;;;;;;;3.83;1.20;;;27.50;88.70;;;;;;5045362;28;20522;-59
2022/09/04 09:18:01;;;;;;;4.75;1.60;;;27.50;88.00;;;;;;5049790;28;20048;-70
2022/09/04 09:20:53;;;;;;;2.03;1.70;;;27.50;89.50;;;;;;5065935;28;20499;-61
2022/09/04 09:23:40;;;;;;;3.63;1.63;;;28.20;86.90;;;;;;5066857;28;20394;-65
2022/09/04 09:26:29;;;;;;;3.38;1.33;;;28.20;87.90;;;;;;5066031;28;20061;-59
2022/09/04 09:29:41;;;;;;;2.40;1.13;;;28.30;86.60;;;;;;5065280;28;20048;-59
2022/09/04 09:32:12;;;;;;;2.70;1.48;;;28.40;85.70;;;;;;4952611;28;20053;-59
2022/09/04 09:35:03;;;;;;;7.85;1.65;;;28.20;87.80;;;;;;5021502;28;20402;-58
2022/09/04 09:38:01;;;;;;;3.85;1.75;;;28.50;86.30;;;;;;5051324;28;20505;-58
2022/09/04 09:41:21;;;;;;;2.65;1.55;;;28.40;85.30;;;;;;5043015;28;20140;-58
2022/09/04 09:44:18;;;;;;;2.20;1.08;;;28.60;84.40;;;;;;5004113;28;20085;-58
2022/09/04 09:46:47;;;;;;;1.58;1.15;;;28.30;84.80;;;;;;5040035;28;20056;-59
2022/09/04 09:49:21;;;;;;;2.53;1.65;;;28.20;86.70;;;;;;5066588;28;20127;-58
2022/09/04 09:52:12;;;;;;;5.97;1.80;;;28.50;86.20;;;;;;5066924;28;20384;-59
2022/09/04 09:54:56;;;;;;;4.50;1.50;;;28.70;84.60;;;;;;5048447;28;20059;-59
2022/09/04 09:57:40;;;;;;;;;;;28.50;84.50;;;;;;5067086;28;20045;-59
2022/09/04 10:00:15;;;;;;;1.80;1.23;;;28.70;84.60;;;;;;5066561;28;19935;-59
2022/09/04 10:02:56;;;;;;;2.15;1.45;;;28.20;85.60;;;;;;5066390;28;20460;-59
2022/09/04 10:05:22;;;;;;;1.42;1.05;;;28.10;86.20;;;;;;5066091;28;20131;-59
2022/09/04 10:08:09;;;;;;;2.58;1.30;;;28.20;85.40;;;;;;5066341;28;20048;-60
2022/09/04 10:10:59;;;;;;;2.15;1.45;;;28.20;83.40;;;;;;5066179;28;20055;-59
2022/09/04 10:13:25;;;;;;;1.23;1.05;;;28.40;85.00;;;;;;5066106;28;20120;-59
2022/09/04 10:16:00;;;;;;;5.80;1.63;;;28.40;85.60;;;;;;5066437;28;20482;-59
2022/09/04 10:18:50;;;;;;;3.92;1.00;;;29.00;84.90;;;;;;5053056;28;20057;-59
2022/09/04 10:21:24;;;;;;;2.95;0.88;;;28.40;84.10;;;;;;5065063;28;20048;-59
2022/09/04 10:24:32;;;;;;;1.65;1.40;;;28.20;84.10;;;;;;5065844;28;20413;-59
2022/09/04 10:27:35;;;;;;;1.23;1.13;;;28.00;83.30;;;;;;5035689;28;20495;-59
2022/09/04 10:30:21;;;;;;;1.77;1.25;;;28.10;83.90;;;;;;5065497;28;20663;-59
2022/09/04 10:33:05;;;;;;;2.28;1.42;;;28.40;83.10;;;;;;5066127;28;20063;-59
2022/09/04 10:36:10;;;;;;;2.25;1.30;;;28.50;83.70;;;;;;5055856;28;20094;-59
2022/09/04 10:41:52;;;;;;;4.80;1.25;;;28.60;83.80;;;;;;5045654;28;20098;-59
2022/09/04 10:44:40;;;;;;;3.75;1.50;;;29.10;83.30;;;;;;5044155;28;20049;-60
2022/09/04 10:47:15;;;;;;;2.42;1.40;;;29.60;82.80;;;;;;5045879;28;20380;-59
2022/09/04 10:50:05;;;;;;;5.53;1.55;;;29.10;82.10;;;;;;5051219;28;20044;-59
2022/09/04 10:52:46;;;;;;;3.85;1.98;;;28.90;81.20;;;;;;5035348;28;20111;-59
2022/09/04 10:55:47;;;;;;;2.28;1.10;;;29.00;82.70;;;;;;5055414;28;20666;-59
2022/09/04 10:58:30;;;;;;;2.78;1.25;;;29.00;81.50;;;;;;5051344;28;20064;-58
2022/09/04 11:01:28;;;;;;;3.92;1.38;;;29.10;81.50;;;;;;5045415;28;20502;-59
2022/09/04 11:03:57;;;;;;;1.80;1.10;;;29.10;81.40;;;;;;5056468;28;20084;-59
2022/09/04 11:06:35;;;;;;;1.40;1.30;;;29.40;82.40;;;;;;5065605;28;20049;-59
2022/09/04 11:09:27;;;;;;;2.95;1.40;;;29.30;82.70;;;;;;5065231;28;20044;-60
2022/09/04 11:12:08;;;;;;;3.47;1.58;;;29.30;81.10;;;;;;5065247;28;20107;-60
2022/09/04 11:14:54;;;;;;;5.82;1.25;;;29.40;82.20;;;;;;5064362;28;20064;-59
2022/09/04 11:17:40;;;;;;;4.18;1.30;;;29.40;82.20;;;;;;5043017;28;20057;-59
2022/09/04 11:20:28;;;;;;;1.50;1.35;;;29.30;81.00;;;;;;5045002;28;20442;-58
2022/09/04 11:23:20;;;;;;;2.25;1.83;;;29.10;81.80;;;;;;5047284;28;20059;-59
2022/09/04 11:26:22;;;;;;;2.10;1.10;;;30.00;81.50;;;;;;5064811;28;20529;-59
2022/09/04 11:29:01;;;;;;;3.95;1.80;;;30.80;80.40;;;;;;5045199;28;20049;-59
2022/09/04 11:32:01;;;;;;;11.55;1.85;;;32.10;78.80;;;;;;5047951;28;20052;-59
2022/09/04 11:34:50;;;;;;;3.08;1.30;;;32.80;78.40;;;;;;5053179;28;20134;-59
2022/09/04 11:38:02;;;;;;;6.13;1.70;;;33.20;76.70;;;;;;5048342;28;20518;-59
2022/09/04 11:40:55;;;;;;;6.18;1.42;;;33.60;74.70;;;;;;5038536;28;20056;-59
2022/09/04 11:43:24;;;;;;;1.38;1.10;;;35.40;75.10;;;;;;5055651;28;20056;-59
2022/09/04 11:46:08;;;;;;;4.85;1.30;;;36.40;74.60;;;;;;5052798;28;20403;-59
2022/09/04 11:48:52;;;;;;;5.05;1.35;;;35.90;72.30;;;;;;5053447;28;20057;-59
2022/09/04 11:51:39;;;;;;;2.17;1.80;;;35.40;72.10;;;;;;5052604;28;20048;-59
2022/09/04 11:54:17;;;;;;;2.65;1.40;;;35.80;72.30;;;;;;5052088;28;20036;-58
2022/09/04 11:57:03;;;;;;;4.90;1.67;;;35.60;72.90;;;;;;5064643;28;20169;-59
2022/09/04 11:59:32;;;;;;;3.22;1.33;;;36.20;71.10;;;;;;5060879;28;20055;-59
2022/09/04 12:02:19;;;;;;;2.40;1.17;;;36.00;71.90;;;;;;5064513;28;20636;-59
2022/09/04 12:05:16;;;;;;;1.20;0.90;;;36.00;71.40;;;;;;5067030;28;20040;-59
2022/09/04 12:08:15;;;;;;;2.10;1.38;;;35.20;71.40;;;;;;5056413;28;20600;-59
2022/09/04 12:10:54;;;;;;;1.13;1.02;;;34.50;71.80;;;;;;5056365;28;20102;-64
2022/09/04 12:13:45;;;;;;;4.03;1.45;;;34.30;72.00;;;;;;5054911;28;20625;-59
2022/09/04 12:16:41;;;;;;;6.78;1.20;;;33.70;72.30;;;;;;5058142;28;20495;-59
2022/09/04 12:19:19;;;;;;;5.03;1.27;;;33.10;72.50;;;;;;5058033;28;20144;-58
2022/09/04 12:22:09;;;;;;;1.45;0.90;;;32.60;73.30;;;;;;5058031;28;20036;-59
2022/09/04 12:24:38;;;;;;;2.53;1.63;;;32.70;73.50;;;;;;5055933;28;20473;-58
2022/09/04 12:27:36;;;;;;;4.45;1.73;;;32.10;73.00;;;;;;5057785;28;20873;-58
2022/09/04 12:30:07;;;;;;;2.25;1.33;;;32.10;74.30;;;;;;5063738;28;20056;-58
2022/09/04 12:33:02;;;;;;;2.83;1.20;;;32.20;74.70;;;;;;5056357;28;20041;-59
2022/09/04 12:35:59;;;;;;;3.10;0.93;;;32.40;75.00;;;;;;5062400;28;20058;-58
2022/09/04 12:39:03;;;;;;;2.90;1.15;;;32.10;74.60;;;;;;5057432;28;20130;-58
2022/09/04 12:41:28;;;;;;;3.08;1.05;;;32.20;74.20;;;;;;5058177;28;20117;-64
2022/09/04 12:44:12;;;;;;;1.38;1.17;;;32.20;75.30;;;;;;5058007;28;20044;-59
2022/09/04 12:46:59;;;;;;;3.28;1.20;;;32.20;74.90;;;;;;5057377;28;20086;-58
2022/09/04 12:49:54;;;;;;;7.63;1.05;;;31.60;74.50;;;;;;5023454;28;20060;-66
2022/09/04 12:52:23;;;;;;;1.15;1.05;;;32.10;74.30;;;;;;5039405;28;20466;-62
2022/09/04 12:55:08;;;;;;;1.85;1.08;;;32.40;75.00;;;;;;5045695;28;20053;-59
2022/09/04 12:57:54;;;;;;;3.70;1.35;;;32.30;74.80;;;;;;5050335;28;20060;-58
2022/09/04 13:00:21;;;;;;;1.50;1.20;;;32.50;75.90;;;;;;5066655;28;20148;-58
2022/09/04 13:02:49;;;;;;;3.25;1.42;;;32.20;75.20;;;;;;5066106;28;20123;-58
2022/09/04 13:05:24;;;;;;;1.65;1.00;;;32.00;74.90;;;;;;5066059;28;20123;-62
2022/09/04 13:08:32;;;;;;;1.55;0.90;;;32.20;75.10;;;;;;5058603;28;20051;-59
2022/09/04 13:10:59;;;;;;;2.45;1.10;;;32.40;74.30;;;;;;5025549;28;20581;-58
2022/09/04 13:13:44;;;;;;;6.03;1.15;;;33.10;75.20;;;;;;5056482;28;20110;-58
2022/09/04 13:16:39;;;;;;;4.10;1.20;;;33.90;74.40;;;;;;5055318;28;20053;-58
2022/09/04 13:19:27;;;;;;;1.58;0.68;;;35.80;72.70;;;;;;5049682;28;20060;-60
2022/09/04 13:22:11;;;;;;;2.15;0.80;;;37.50;70.90;;;;;;5048479;28;20142;-58
2022/09/04 13:24:42;;;;;;;2.28;1.15;;;37.20;70.60;;;;;;5035100;28;20057;-58
2022/09/04 13:27:31;;;;;;;1.95;1.33;;;37.80;69.50;;;;;;5046162;28;20064;-58
2022/09/04 13:30:20;;;;;;;2.47;0.88;;;35.90;69.50;;;;;;5055029;28;20075;-58
2022/09/04 13:33:22;;;;;;;2.67;1.10;;;36.60;70.00;;;;;;5036998;28;20084;-58
2022/09/04 13:35:57;;;;;;;10.43;1.50;;;37.20;68.60;;;;;;5040240;28;20059;-59
2022/09/04 13:38:57;;;;;;;1.67;0.90;;;37.80;68.50;;;;;;5057776;28;20053;-58
2022/09/04 13:41:41;;;;;;;8.55;1.42;;;37.80;68.50;;;;;;5058266;28;20041;-59
2022/09/04 13:44:25;;;;;;;;;;;37.10;67.60;;;;;;5036738;28;20048;-60
2022/09/04 13:47:08;;;;;;;3.92;1.42;;;35.60;69.30;;;;;;5058252;28;19946;-58
2022/09/04 13:49:52;;;;;;;4.15;0.80;;;34.30;69.70;;;;;;5051474;28;20052;-59
2022/09/04 13:52:28;;;;;;;5.68;1.60;;;33.90;69.20;;;;;;5052898;28;20489;-61
2022/09/04 13:54:58;;;;;;;1.20;1.00;;;33.20;71.60;;;;;;5032164;28;20045;-60
2022/09/04 13:57:27;;;;;;;5.07;1.25;;;33.50;71.60;;;;;;5055007;28;20044;-60
2022/09/04 14:00:01;;;;;;;3.42;1.15;;;32.70;71.80;;;;;;5060009;28;20119;-60
2022/09/04 14:02:29;;;;;;;2.47;1.20;;;32.30;72.30;;;;;;5055570;28;20080;-58
2022/09/04 14:05:15;;;;;;;1.70;1.17;;;31.40;73.00;;;;;;5055541;28;20040;-58
2022/09/04 14:07:45;;;;;;;76.13;14.30;;;32.00;73.80;;;;;;5053854;28;20052;-58
2022/09/04 14:10:16;;;;;;;4.13;1.13;;;32.20;73.60;;;;;;5054514;28;20555;-58
2022/09/04 14:12:45;;;;;;;4.38;1.15;;;31.90;73.30;;;;;;5054054;28;20091;-58
2022/09/04 14:15:18;;;;;;;1.98;1.13;;;31.70;73.60;;;;;;5058382;28;20088;-62
2022/09/04 14:18:17;;;;;;;1.80;0.98;;;31.80;74.10;;;;;;5051938;28;20491;-58
2022/09/04 14:20:56;;;;;;;1.75;1.02;;;31.50;73.90;;;;;;5046249;28;20138;-58